createdAt,value
2023-05-15T00:00:13.816Z,96173.44
2023-05-15T00:01:16.592Z,96169.22
2023-05-15T00:02:18.420Z,96179.47
2023-05-15T00:03:20.447Z,96171.84
2023-05-15T00:04:22.452Z,96179.94
2023-05-15T00:05:24.552Z,96175.50
2023-05-15T00:06:28.358Z,96175.16
2023-05-15T00:07:30.376Z,96175.16
2023-05-15T00:08:32.232Z,96169.56
2023-05-15T00:09:34.102Z,96176.63
2023-05-15T00:10:36.151Z,96172.19
2023-05-15T00:11:38.052Z,96174.00
2023-05-15T00:12:39.996Z,96169.81
2023-05-15T00:13:41.843Z,96174.47
2023-05-15T00:14:43.792Z,96177.31
2023-05-15T00:15:45.698Z,96173.09
2023-05-15T00:16:47.702Z,96169.47
2023-05-15T00:17:49.602Z,96170.47
2023-05-15T00:18:51.600Z,96171.84
2023-05-15T00:19:57.796Z,96172.66
2023-05-15T00:20:59.846Z,96164.59
2023-05-15T00:22:01.821Z,96171.16
2023-05-15T00:23:03.756Z,96168.91
2023-05-15T00:24:05.871Z,96171.53
2023-05-15T00:25:07.839Z,96171.53
2023-05-15T00:26:09.786Z,96167.09
2023-05-15T00:27:11.628Z,96171.28
2023-05-15T00:28:13.535Z,96172.09
2023-05-15T00:29:15.294Z,96171.84
2023-05-15T00:30:17.224Z,96174.47
2023-05-15T00:31:19.077Z,96169.22
2023-05-15T00:32:20.971Z,96173.09
2023-05-15T00:33:22.829Z,96168.34
2023-05-15T00:34:24.920Z,96169.13
2023-05-15T00:35:27.029Z,96170.69
2023-05-15T00:36:28.959Z,96167.31
2023-05-15T00:37:30.767Z,96175.94
2023-05-15T00:38:33.933Z,96173.31
2023-05-15T00:39:36.408Z,96173.00
2023-05-15T00:40:39.204Z,96171.16
2023-05-15T00:41:41.385Z,96171.97
2023-05-15T00:42:43.775Z,96174.34
2023-05-15T00:43:46.970Z,96170.69
2023-05-15T00:44:49.168Z,96171.59
2023-05-15T00:45:52.316Z,96169.47
2023-05-15T00:46:54.913Z,96174.69
2023-05-15T00:47:58.145Z,96170.03
2023-05-15T00:49:00.387Z,96167.19
2023-05-15T00:50:02.870Z,96170.13
2023-05-15T00:51:04.821Z,96170.69
2023-05-15T00:52:08.849Z,96167.88
2023-05-15T00:53:11.306Z,96172.53
2023-05-15T00:54:13.285Z,96168.09
2023-05-15T00:55:15.214Z,96171.16
2023-05-15T00:56:17.850Z,96174.78
2023-05-15T00:57:22.006Z,96175.81
2023-05-15T00:58:24.200Z,96176.63
2023-05-15T00:59:30.494Z,96178.22
2023-05-15T01:00:33.436Z,96173.22
2023-05-15T01:01:36.295Z,96177.97
2023-05-15T01:02:38.362Z,96174.34
2023-05-15T01:03:40.389Z,96172.31
2023-05-15T01:04:42.404Z,96183.56
2023-05-15T01:05:44.494Z,96173.88
2023-05-15T01:06:46.432Z,96175.72
2023-05-15T01:08:04.715Z,96176.50
2023-05-15T01:09:08.546Z,96179.69
2023-05-15T01:10:11.034Z,96177.06
2023-05-15T01:11:14.199Z,96176.28
2023-05-15T01:12:17.123Z,96172.09
2023-05-15T01:13:22.837Z,96183.19
2023-05-15T01:14:24.741Z,96170.81
2023-05-15T01:15:26.889Z,96178.09
2023-05-15T01:16:28.814Z,96175.25
2023-05-15T01:17:31.556Z,96179.44
2023-05-15T01:18:34.162Z,96170.59
2023-05-15T01:19:37.125Z,96177.97
2023-05-15T01:20:57.729Z,96176.97
2023-05-15T01:22:16.243Z,96174.34
2023-05-15T01:23:36.551Z,96170.69
2023-05-15T01:24:59.692Z,96175.34
2023-05-15T01:26:04.636Z,96180.00
2023-05-15T01:27:06.497Z,96176.19
2023-05-15T01:28:13.203Z,96173.31
2023-05-15T01:29:18.630Z,96173.88
2023-05-15T01:30:20.315Z,96177.53
2023-05-15T01:31:24.044Z,96175.34
2023-05-15T01:32:28.870Z,96170.03
2023-05-15T01:33:34.744Z,96172.66
2023-05-15T01:34:44.439Z,96167.41
2023-05-15T01:35:53.231Z,96177.66
2023-05-15T01:36:57.247Z,96169.47
2023-05-15T01:38:17.352Z,96170.47
2023-05-15T01:39:23.387Z,96172.16
2023-05-15T01:40:26.860Z,96165.78
2023-05-15T01:41:30.553Z,96166.84
2023-05-15T01:42:34.623Z,96171.28
2023-05-15T01:43:39.426Z,96169.22
2023-05-15T01:44:43.947Z,96168.19
2023-05-15T01:45:46.362Z,96172.97
2023-05-15T01:46:51.976Z,96169.31
2023-05-15T01:47:54.787Z,96169.31
2023-05-15T01:48:58.769Z,96172.16
2023-05-15T01:50:02.263Z,96170.59
2023-05-15T01:51:06.396Z,96174.66
2023-05-15T01:52:14.799Z,96177.50
2023-05-15T01:53:17.302Z,96171.91
2023-05-15T01:54:19.811Z,96170.34
2023-05-15T01:55:23.378Z,96168.53
2023-05-15T01:56:26.483Z,96169.66
2023-05-15T01:57:29.178Z,96171.03
2023-05-15T01:58:32.153Z,96173.19
2023-05-15T01:59:34.995Z,96169.53
2023-05-15T02:00:38.026Z,96170.38
2023-05-15T02:01:40.664Z,96169.78
2023-05-15T02:02:43.557Z,96161.97
2023-05-15T02:03:46.412Z,96173.41
2023-05-15T02:04:49.159Z,96168.66
2023-05-15T02:05:52.169Z,96175.91
2023-05-15T02:06:54.255Z,96174.31
2023-05-15T02:07:56.958Z,96166.47
2023-05-15T02:08:59.613Z,96166.94
2023-05-15T02:10:02.432Z,96170.34
2023-05-15T02:11:05.178Z,96171.91
2023-05-15T02:12:07.695Z,96170.34
2023-05-15T02:13:13.009Z,96171.34
2023-05-15T02:14:16.666Z,96170.56
2023-05-15T02:15:19.486Z,96169.31
2023-05-15T02:16:21.511Z,96170.69
2023-05-15T02:17:24.252Z,96164.22
2023-05-15T02:18:26.356Z,96162.75
2023-05-15T02:19:28.208Z,96170.38
2023-05-15T02:20:30.124Z,96166.94
2023-05-15T02:21:32.074Z,96166.16
2023-05-15T02:22:34.165Z,96165.56
2023-05-15T02:23:35.979Z,96165.78
2023-05-15T02:24:37.876Z,96164.22
2023-05-15T02:25:47.939Z,96166.63
2023-05-15T02:26:55.624Z,96168.19
2023-05-15T02:28:00.547Z,96168.41
2023-05-15T02:29:19.407Z,96168.97
2023-05-15T02:30:30.194Z,96168.19
2023-05-15T02:31:53.041Z,96165.34
2023-05-15T02:33:13.558Z,96169.78
2023-05-15T02:34:21.301Z,96167.41
2023-05-15T02:35:35.083Z,96161.81
2023-05-15T02:36:40.917Z,96163.06
2023-05-15T02:37:45.920Z,96164.91
2023-05-15T02:38:49.275Z,96160.34
2023-05-15T02:39:54.615Z,96158.97
2023-05-15T02:40:57.464Z,96165.22
2023-05-15T02:42:00.606Z,96165.22
2023-05-15T02:43:02.666Z,96156.34
2023-05-15T02:44:05.118Z,96161.22
2023-05-15T02:45:08.029Z,96158.41
2023-05-15T02:46:10.861Z,96157.41
2023-05-15T02:47:13.022Z,96156.72
2023-05-15T02:48:16.114Z,96165.13
2023-05-15T02:49:18.157Z,96153.88
2023-05-15T02:50:20.682Z,96164.09
2023-05-15T02:51:22.491Z,96159.69
2023-05-15T02:52:25.028Z,96162.28
2023-05-15T02:53:27.041Z,96167.50
2023-05-15T02:54:28.853Z,96159.09
2023-05-15T02:55:31.216Z,96164.09
2023-05-15T02:56:33.046Z,96153.88
2023-05-15T02:57:34.898Z,96165.34
2023-05-15T02:58:37.432Z,96156.72
2023-05-15T02:59:39.387Z,96158.75
2023-05-15T03:00:41.306Z,96157.41
2023-05-15T03:01:43.517Z,96159.88
2023-05-15T03:02:45.467Z,96159.66
2023-05-15T03:03:47.779Z,96163.84
2023-05-15T03:04:49.632Z,96163.63
2023-05-15T03:05:51.456Z,96155.78
2023-05-15T03:06:53.352Z,96161.38
2023-05-15T03:07:55.186Z,96151.72
2023-05-15T03:08:57.094Z,96161.38
2023-05-15T03:09:58.896Z,96162.63
2023-05-15T03:11:00.784Z,96162.84
2023-05-15T03:12:02.670Z,96162.03
2023-05-15T03:13:04.568Z,96161.00
2023-05-15T03:14:06.465Z,96169.41
2023-05-15T03:15:08.665Z,96168.97
2023-05-15T03:16:10.636Z,96169.56
2023-05-15T03:17:12.701Z,96173.75
2023-05-15T03:18:15.828Z,96175.00
2023-05-15T03:19:19.817Z,96180.00
2023-05-15T03:20:21.703Z,96174.78
2023-05-15T03:21:23.561Z,96173.63
2023-05-15T03:22:26.096Z,96177.13
2023-05-15T03:23:27.988Z,96172.56
2023-05-15T03:24:29.847Z,96177.44
2023-05-15T03:25:31.775Z,96180.16
2023-05-15T03:26:33.627Z,96186.03
2023-05-15T03:27:35.531Z,96181.25
2023-05-15T03:28:37.352Z,96172.63
2023-05-15T03:29:39.591Z,96172.19
2023-05-15T03:30:43.981Z,96173.94
2023-05-15T03:31:45.840Z,96180.50
2023-05-15T03:32:47.663Z,96170.06
2023-05-15T03:33:51.073Z,96176.75
2023-05-15T03:34:52.948Z,96175.03
2023-05-15T03:35:54.986Z,96182.50
2023-05-15T03:36:56.920Z,96189.09
2023-05-15T03:37:58.738Z,96183.44
2023-05-15T03:39:00.673Z,96189.81
2023-05-15T03:40:02.610Z,96182.75
2023-05-15T03:41:04.462Z,96186.03
2023-05-15T03:42:06.502Z,96183.66
2023-05-15T03:43:08.352Z,96184.78
2023-05-15T03:44:10.198Z,96190.03
2023-05-15T03:45:12.197Z,96187.97
2023-05-15T03:46:14.022Z,96186.72
2023-05-15T03:47:16.256Z,96190.50
2023-05-15T03:48:18.140Z,96185.88
2023-05-15T03:49:19.909Z,96178.38
2023-05-15T03:50:21.788Z,96186.09
2023-05-15T03:51:24.542Z,96190.94
2023-05-15T03:52:26.423Z,96188.19
2023-05-15T03:53:28.339Z,96180.72
2023-05-15T03:54:30.931Z,96173.47
2023-05-15T03:55:32.880Z,96187.56
2023-05-15T03:56:34.809Z,96188.34
2023-05-15T03:57:36.814Z,96188.34
2023-05-15T03:58:38.723Z,96185.50
2023-05-15T03:59:40.729Z,96183.91
2023-05-15T04:00:42.636Z,96182.53
2023-05-15T04:01:59.416Z,96190.81
2023-05-15T04:03:05.833Z,96190.22
2023-05-15T04:04:07.974Z,96185.25
2023-05-15T04:05:10.222Z,96188.88
2023-05-15T04:06:12.262Z,96190.69
2023-05-15T04:07:14.084Z,96183.06
2023-05-15T04:08:16.827Z,96190.53
2023-05-15T04:09:18.652Z,96191.94
2023-05-15T04:10:20.583Z,96190.91
2023-05-15T04:11:23.728Z,96191.69
2023-05-15T04:12:28.375Z,96195.91
2023-05-15T04:13:30.191Z,96188.50
2023-05-15T04:14:32.068Z,96197.94
2023-05-15T04:15:35.434Z,96190.13
2023-05-15T04:16:37.337Z,96195.97
2023-05-15T04:17:39.316Z,96188.28
2023-05-15T04:18:41.182Z,96194.59
2023-05-15T04:19:43.216Z,96190.72
2023-05-15T04:20:45.076Z,96190.56
2023-05-15T04:21:47.025Z,96195.84
2023-05-15T04:22:49.114Z,96200.91
2023-05-15T04:23:50.990Z,96196.72
2023-05-15T04:24:52.911Z,96195.69
2023-05-15T04:25:55.195Z,96200.91
2023-05-15T04:26:57.130Z,96199.34
2023-05-15T04:27:59.011Z,96202.66
2023-05-15T04:29:04.590Z,96209.84
2023-05-15T04:30:07.457Z,96206.00
2023-05-15T04:31:09.291Z,96202.81
2023-05-15T04:32:13.149Z,96201.56
2023-05-15T04:33:15.114Z,96202.38
2023-05-15T04:34:17.308Z,96206.22
2023-05-15T04:35:19.435Z,96196.34
2023-05-15T04:36:21.352Z,96204.53
2023-05-15T04:37:23.222Z,96194.69
2023-05-15T04:38:25.147Z,96201.06
2023-05-15T04:39:27.069Z,96202.22
2023-05-15T04:40:29.091Z,96201.63
2023-05-15T04:41:32.026Z,96208.00
2023-05-15T04:42:34.549Z,96200.19
2023-05-15T04:43:36.647Z,96198.44
2023-05-15T04:44:38.489Z,96200.00
2023-05-15T04:45:40.387Z,96199.03
2023-05-15T04:46:42.242Z,96198.19
2023-05-15T04:47:44.204Z,96202.38
2023-05-15T04:48:46.429Z,96203.31
2023-05-15T04:49:48.467Z,96202.19
2023-05-15T04:50:50.361Z,96202.03
2023-05-15T04:51:52.178Z,96209.28
2023-05-15T04:52:54.411Z,96204.66
2023-05-15T04:53:56.265Z,96200.59
2023-05-15T04:54:58.244Z,96206.59
2023-05-15T04:56:00.135Z,96205.72
2023-05-15T04:57:02.914Z,96210.84
2023-05-15T04:58:04.923Z,96203.97
2023-05-15T04:59:06.848Z,96204.53
2023-05-15T05:00:12.534Z,96204.69
2023-05-15T05:01:14.447Z,96209.47
2023-05-15T05:02:16.323Z,96208.22
2023-05-15T05:03:18.349Z,96204.59
2023-05-15T05:04:20.495Z,96206.75
2023-05-15T05:05:22.566Z,96204.97
2023-05-15T05:06:24.720Z,96211.56
2023-05-15T05:07:26.546Z,96217.00
2023-05-15T05:08:28.403Z,96214.38
2023-05-15T05:09:30.426Z,96214.84
2023-05-15T05:10:32.228Z,96216.72
2023-05-15T05:11:34.117Z,96209.69
2023-05-15T05:12:35.928Z,96214.47
2023-05-15T05:13:37.869Z,96215.72
2023-05-15T05:14:42.527Z,96214.09
2023-05-15T05:15:44.683Z,96214.09
2023-05-15T05:16:46.532Z,96214.56
2023-05-15T05:17:48.402Z,96208.75
2023-05-15T05:18:51.039Z,96209.97
2023-05-15T05:19:52.990Z,96207.34
2023-05-15T05:21:01.907Z,96207.94
2023-05-15T05:22:07.914Z,96207.34
2023-05-15T05:23:09.866Z,96206.78
2023-05-15T05:24:12.122Z,96208.03
2023-05-15T05:25:14.063Z,96210.22
2023-05-15T05:26:15.873Z,96208.81
2023-05-15T05:27:17.783Z,96213.81
2023-05-15T05:28:19.647Z,96214.81
2023-05-15T05:29:24.193Z,96219.03
2023-05-15T05:30:26.149Z,96212.81
2023-05-15T05:31:28.042Z,96219.97
2023-05-15T05:32:29.860Z,96218.03
2023-05-15T05:33:31.763Z,96223.25
2023-05-15T05:34:33.627Z,96221.22
2023-05-15T05:35:35.455Z,96229.31
2023-05-15T05:36:37.448Z,96226.13
2023-05-15T05:37:41.297Z,96225.53
2023-05-15T05:38:43.532Z,96224.38
2023-05-15T05:39:45.461Z,96223.59
2023-05-15T05:40:47.303Z,96223.97
2023-05-15T05:41:49.168Z,96223.66
2023-05-15T05:42:51.058Z,96220.97
2023-05-15T05:43:52.870Z,96215.72
2023-05-15T05:44:54.882Z,96214.69
2023-05-15T05:45:56.736Z,96218.91
2023-05-15T05:46:58.520Z,96219.69
2023-05-15T05:48:00.385Z,96224.53
2023-05-15T05:49:02.297Z,96218.75
2023-05-15T05:50:04.326Z,96222.38
2023-05-15T05:51:06.448Z,96224.53
2023-05-15T05:52:08.542Z,96224.13
2023-05-15T05:53:10.515Z,96226.72
2023-05-15T05:54:12.407Z,96222.97
2023-05-15T05:55:14.439Z,96225.00
2023-05-15T05:56:16.453Z,96226.34
2023-05-15T05:57:18.396Z,96226.16
2023-05-15T05:58:25.547Z,96225.47
2023-05-15T05:59:29.489Z,96225.84
2023-05-15T06:00:31.927Z,96219.75
2023-05-15T06:01:33.955Z,96222.47
2023-05-15T06:02:36.485Z,96221.84
2023-05-15T06:03:39.653Z,96222.75
2023-05-15T06:04:41.850Z,96229.13
2023-05-15T06:05:43.765Z,96233.91
2023-05-15T06:06:45.615Z,96232.47
2023-05-15T06:07:48.208Z,96231.78
2023-05-15T06:08:50.035Z,96232.38
2023-05-15T06:09:52.104Z,96235.75
2023-05-15T06:10:54.026Z,96231.94
2023-05-15T06:11:55.894Z,96235.69
2023-05-15T06:12:57.794Z,96234.44
2023-05-15T06:13:59.635Z,96239.25
2023-05-15T06:15:01.462Z,96235.59
2023-05-15T06:16:04.091Z,96240.03
2023-05-15T06:17:06.177Z,96238.00
2023-05-15T06:18:08.300Z,96246.63
2023-05-15T06:19:10.158Z,96243.78
2023-05-15T06:20:12.381Z,96240.97
2023-05-15T06:21:14.216Z,96243.34
2023-05-15T06:22:16.056Z,96245.63
2023-05-15T06:23:18.086Z,96250.38
2023-05-15T06:24:19.925Z,96247.75
2023-05-15T06:25:21.979Z,96245.38
2023-05-15T06:26:23.944Z,96252.41
2023-05-15T06:27:29.595Z,96250.25
2023-05-15T06:28:31.467Z,96249.13
2023-05-15T06:29:33.247Z,96250.53
2023-05-15T06:30:35.144Z,96245.78
2023-05-15T06:31:37.009Z,96251.56
2023-05-15T06:32:39.918Z,96253.75
2023-05-15T06:33:41.762Z,96250.69
2023-05-15T06:34:43.611Z,96250.47
2023-05-15T06:35:45.981Z,96254.44
2023-05-15T06:36:47.781Z,96251.41
2023-05-15T06:37:50.589Z,96257.22
2023-05-15T06:38:52.468Z,96253.56
2023-05-15T06:39:54.317Z,96251.41
2023-05-15T06:40:56.264Z,96245.81
2023-05-15T06:42:01.719Z,96251.25
2023-05-15T06:43:04.101Z,96248.66
2023-05-15T06:44:06.009Z,96250.84
2023-05-15T06:45:08.127Z,96248.78
2023-05-15T06:46:10.117Z,96258.00
2023-05-15T06:47:12.400Z,96247.09
2023-05-15T06:48:14.294Z,96244.25
2023-05-15T06:49:16.155Z,96252.47
2023-05-15T06:50:18.125Z,96248.59
2023-05-15T06:51:20.100Z,96245.63
2023-05-15T06:52:21.930Z,96250.06
2023-05-15T06:53:23.915Z,96250.41
2023-05-15T06:54:25.834Z,96255.75
2023-05-15T06:55:27.922Z,96253.50
2023-05-15T06:56:29.974Z,96248.06
2023-05-15T06:57:31.816Z,96252.94
2023-05-15T06:58:33.655Z,96254.75
2023-05-15T06:59:36.044Z,96256.31
2023-05-15T07:00:37.856Z,96250.88
2023-05-15T07:01:39.810Z,96254.66
2023-05-15T07:02:41.793Z,96256.25
2023-05-15T07:03:43.626Z,96255.78
2023-05-15T07:04:45.597Z,96255.13
2023-05-15T07:05:47.535Z,96253.09
2023-05-15T07:06:49.430Z,96257.50
2023-05-15T07:07:51.253Z,96254.91
2023-05-15T07:08:53.166Z,96248.44
2023-05-15T07:09:55.012Z,96245.47
2023-05-15T07:10:57.050Z,96251.94
2023-05-15T07:11:58.935Z,96253.31
2023-05-15T07:13:00.854Z,96259.78
2023-05-15T07:14:02.710Z,96265.59
2023-05-15T07:15:05.162Z,96262.84
2023-05-15T07:16:07.240Z,96260.44
2023-05-15T07:17:09.498Z,96265.34
2023-05-15T07:18:11.387Z,96257.25
2023-05-15T07:19:13.653Z,96264.44
2023-05-15T07:20:16.033Z,96260.94
2023-05-15T07:21:17.920Z,96261.25
2023-05-15T07:22:20.030Z,96258.44
2023-05-15T07:23:21.906Z,96256.16
2023-05-15T07:24:23.742Z,96261.41
2023-05-15T07:25:25.924Z,96254.56
2023-05-15T07:26:36.329Z,96262.53
2023-05-15T07:27:40.547Z,96248.91
2023-05-15T07:28:42.427Z,96261.75
2023-05-15T07:29:44.337Z,96255.06
2023-05-15T07:30:46.291Z,96256.41
2023-05-15T07:31:48.140Z,96248.13
2023-05-15T07:32:50.257Z,96250.88
2023-05-15T07:33:52.245Z,96246.69
2023-05-15T07:34:54.079Z,96254.84
2023-05-15T07:35:56.030Z,96249.00
2023-05-15T07:36:57.896Z,96258.78
2023-05-15T07:37:59.860Z,96253.56
2023-05-15T07:39:01.746Z,96255.28
2023-05-15T07:40:04.854Z,96250.19
2023-05-15T07:41:06.966Z,96245.66
2023-05-15T07:42:08.871Z,96249.19
2023-05-15T07:43:10.800Z,96248.72
2023-05-15T07:44:12.609Z,96247.03
2023-05-15T07:45:14.589Z,96245.19
2023-05-15T07:46:16.613Z,96247.50
2023-05-15T07:47:18.570Z,96249.06
2023-05-15T07:48:20.720Z,96257.84
2023-05-15T07:49:22.549Z,96251.13
2023-05-15T07:50:24.487Z,96252.69
2023-05-15T07:51:26.368Z,96248.84
2023-05-15T07:52:28.225Z,96253.16
2023-05-15T07:53:30.108Z,96259.19
2023-05-15T07:54:32.715Z,96250.34
2023-05-15T07:55:34.538Z,96257.72
2023-05-15T07:56:36.498Z,96258.19
2023-05-15T07:57:38.499Z,96262.38
2023-05-15T07:58:40.691Z,96262.72
2023-05-15T07:59:42.506Z,96265.91
2023-05-15T08:00:44.398Z,96263.50
2023-05-15T08:01:46.258Z,96269.56
2023-05-15T08:02:49.063Z,96270.13
2023-05-15T08:03:51.131Z,96276.94
2023-05-15T08:04:53.100Z,96263.41
2023-05-15T08:05:54.968Z,96272.41
2023-05-15T08:06:57.067Z,96265.91
2023-05-15T08:07:58.996Z,96271.72
2023-05-15T08:09:01.210Z,96269.66
2023-05-15T08:10:06.417Z,96271.72
2023-05-15T08:11:08.340Z,96275.09
2023-05-15T08:12:17.948Z,96283.19
2023-05-15T08:13:19.808Z,96280.81
2023-05-15T08:14:21.757Z,96273.97
2023-05-15T08:15:24.424Z,96282.16
2023-05-15T08:16:26.729Z,96280.56
2023-05-15T08:17:28.800Z,96285.00
2023-05-15T08:18:30.702Z,96283.75
2023-05-15T08:19:32.706Z,96280.56
2023-05-15T08:20:34.603Z,96278.19
2023-05-15T08:21:36.423Z,96284.22
2023-05-15T08:22:38.366Z,96282.59
2023-05-15T08:23:40.163Z,96281.47
2023-05-15T08:24:42.124Z,96281.94
2023-05-15T08:25:43.982Z,96287.75
2023-05-15T08:26:45.812Z,96289.09
2023-05-15T08:27:47.666Z,96290.47
2023-05-15T08:28:49.504Z,96294.78
2023-05-15T08:29:51.583Z,96296.81
2023-05-15T08:30:53.575Z,96295.25
2023-05-15T08:31:55.448Z,96300.00
2023-05-15T08:32:57.351Z,96303.09
2023-05-15T08:33:59.212Z,96309.91
2023-05-15T08:35:01.149Z,96307.28
2023-05-15T08:36:03.042Z,96302.63
2023-05-15T08:37:06.381Z,96304.59
2023-05-15T08:38:08.230Z,96304.59
2023-05-15T08:39:10.465Z,96317.41
2023-05-15T08:40:12.671Z,96313.78
2023-05-15T08:41:28.801Z,96317.97
2023-05-15T08:42:45.927Z,96320.16
2023-05-15T08:43:48.977Z,96321.28
2023-05-15T08:44:50.906Z,96322.09
2023-05-15T08:45:54.392Z,96317.19
2023-05-15T08:46:58.336Z,96315.94
2023-05-15T08:48:00.936Z,96317.88
2023-05-15T08:49:11.760Z,96313.22
2023-05-15T08:50:15.576Z,96313.31
2023-05-15T08:51:19.167Z,96322.53
2023-05-15T08:52:21.323Z,96314.00
2023-05-15T08:53:23.334Z,96314.91
2023-05-15T08:54:25.872Z,96312.84
2023-05-15T08:55:29.370Z,96310.53
2023-05-15T08:56:31.357Z,96310.09
2023-05-15T08:57:33.395Z,96309.06
2023-05-15T08:58:35.309Z,96314.84
2023-05-15T08:59:38.064Z,96317.47
2023-05-15T09:00:39.950Z,96318.41
2023-05-15T09:01:41.931Z,96316.25
2023-05-15T09:02:43.998Z,96318.75
2023-05-15T09:03:47.610Z,96320.81
2023-05-15T09:04:49.595Z,96324.91
2023-05-15T09:05:53.660Z,96327.75
2023-05-15T09:06:56.465Z,96331.97
2023-05-15T09:08:00.181Z,96330.16
2023-05-15T09:09:02.648Z,96325.25
2023-05-15T09:10:04.794Z,96331.50
2023-05-15T09:11:08.169Z,96333.34
2023-05-15T09:12:11.900Z,96332.78
2023-05-15T09:13:15.213Z,96324.00
2023-05-15T09:14:17.113Z,96318.41
2023-05-15T09:15:22.336Z,96329.34
2023-05-15T09:16:24.359Z,96327.59
2023-05-15T09:17:26.252Z,96319.84
2023-05-15T09:18:28.211Z,96312.09
2023-05-15T09:19:30.174Z,96316.88
2023-05-15T09:20:36.986Z,96314.03
2023-05-15T09:21:38.890Z,96303.31
2023-05-15T09:22:41.135Z,96309.75
2023-05-15T09:23:43.090Z,96307.72
2023-05-15T09:24:49.491Z,96310.69
2023-05-15T09:25:56.001Z,96306.00
2023-05-15T09:27:03.144Z,96305.28
2023-05-15T09:28:05.825Z,96304.84
2023-05-15T09:29:07.712Z,96305.84
2023-05-15T09:30:10.453Z,96314.28
2023-05-15T09:31:12.516Z,96312.72
2023-05-15T09:32:15.084Z,96316.34
2023-05-15T09:33:17.349Z,96311.03
2023-05-15T09:34:19.155Z,96307.84
2023-05-15T09:35:34.388Z,96308.84
2023-05-15T09:36:37.164Z,96307.84
2023-05-15T09:37:39.042Z,96316.25
2023-05-15T09:38:48.746Z,96309.19
2023-05-15T09:39:50.678Z,96312.81
2023-05-15T09:41:01.186Z,96312.59
2023-05-15T09:42:06.344Z,96309.66
2023-05-15T09:43:10.263Z,96316.94
2023-05-15T09:44:21.250Z,96316.84
2023-05-15T09:45:25.941Z,96314.66
2023-05-15T09:46:28.029Z,96316.88
2023-05-15T09:47:30.132Z,96322.09
2023-05-15T09:48:32.984Z,96325.84
2023-05-15T09:49:35.647Z,96325.97
2023-05-15T09:50:40.160Z,96319.59
2023-05-15T09:51:43.597Z,96331.31
2023-05-15T09:52:45.684Z,96325.28
2023-05-15T09:53:52.140Z,96327.91
2023-05-15T09:54:54.123Z,96320.06
2023-05-15T09:55:56.513Z,96323.00
2023-05-15T09:57:07.296Z,96317.06
2023-05-15T09:58:11.264Z,96318.22
2023-05-15T09:59:14.865Z,96310.13
2023-05-15T10:00:20.121Z,96304.19
2023-05-15T10:01:23.214Z,96307.91
2023-05-15T10:02:32.659Z,96309.53
2023-05-15T10:03:34.730Z,96312.94
2023-05-15T10:04:37.120Z,96310.31
2023-05-15T10:05:43.723Z,96307.47
2023-05-15T10:06:46.996Z,96307.47
2023-05-15T10:07:54.181Z,96310.09
2023-05-15T10:08:56.292Z,96309.59
2023-05-15T10:09:58.621Z,96306.97
2023-05-15T10:11:01.870Z,96308.03
2023-05-15T10:12:04.469Z,96304.91
2023-05-15T10:13:07.600Z,96300.72
2023-05-15T10:14:11.295Z,96301.28
2023-05-15T10:15:13.919Z,96301.84
2023-05-15T10:16:16.081Z,96302.41
2023-05-15T10:17:21.067Z,96299.56
2023-05-15T10:18:26.467Z,96299.84
2023-05-15T10:19:29.073Z,96299.63
2023-05-15T10:20:32.410Z,96303.53
2023-05-15T10:21:35.456Z,96301.13
2023-05-15T10:22:38.506Z,96297.00
2023-05-15T10:23:42.104Z,96304.53
2023-05-15T10:24:45.195Z,96297.94
2023-05-15T10:26:01.025Z,96294.53
2023-05-15T10:27:03.710Z,96302.06
2023-05-15T10:28:08.841Z,96299.44
2023-05-15T10:29:11.976Z,96298.19
2023-05-15T10:30:17.036Z,96302.41
2023-05-15T10:31:18.994Z,96302.63
2023-05-15T10:32:21.717Z,96300.78
2023-05-15T10:33:24.482Z,96294.31
2023-05-15T10:34:26.610Z,96287.06
2023-05-15T10:35:28.938Z,96298.13
2023-05-15T10:36:33.049Z,96286.63
2023-05-15T10:37:36.810Z,96298.13
2023-05-15T10:38:38.994Z,96292.66
2023-05-15T10:39:41.575Z,96297.91
2023-05-15T10:40:44.313Z,96300.19
2023-05-15T10:41:46.778Z,96298.75
2023-05-15T10:42:49.057Z,96304.47
2023-05-15T10:43:53.477Z,96296.03
2023-05-15T10:45:00.402Z,96304.25
2023-05-15T10:46:04.092Z,96299.22
2023-05-15T10:47:06.343Z,96307.78
2023-05-15T10:48:08.923Z,96309.38
2023-05-15T10:49:10.817Z,96308.34
2023-05-15T10:50:13.785Z,96308.66
2023-05-15T10:51:16.914Z,96307.16
2023-05-15T10:52:19.089Z,96303.03
2023-05-15T10:53:21.331Z,96307.81
2023-05-15T10:54:23.321Z,96296.78
2023-05-15T10:55:25.176Z,96306.22
2023-05-15T10:56:38.087Z,96306.22
2023-05-15T10:57:40.069Z,96306.69
2023-05-15T10:58:46.853Z,96304.88
2023-05-15T10:59:48.982Z,96312.72
2023-05-15T11:00:51.342Z,96306.94
2023-05-15T11:01:53.499Z,96312.97
2023-05-15T11:02:57.460Z,96315.03
2023-05-15T11:04:06.240Z,96306.28
2023-05-15T11:05:08.437Z,96313.34
2023-05-15T11:06:14.159Z,96310.97
2023-05-15T11:07:16.845Z,96314.94
2023-05-15T11:08:19.782Z,96324.38
2023-05-15T11:09:21.732Z,96325.44
2023-05-15T11:10:29.913Z,96317.94
2023-05-15T11:11:51.779Z,96321.13
2023-05-15T11:13:00.238Z,96314.28
2023-05-15T11:14:05.156Z,96321.81
2023-05-15T11:15:10.204Z,96317.94
2023-05-15T11:16:12.903Z,96325.31
2023-05-15T11:17:16.859Z,96324.31
2023-05-15T11:18:20.342Z,96331.06
2023-05-15T11:19:35.383Z,96339.47
2023-05-15T11:20:41.572Z,96331.94
2023-05-15T11:21:46.990Z,96329.56
2023-05-15T11:22:57.913Z,96330.56
2023-05-15T11:24:06.030Z,96334.69
2023-05-15T11:25:09.580Z,96337.53
2023-05-15T11:26:13.434Z,96333.66
2023-05-15T11:27:18.263Z,96338.66
2023-05-15T11:28:24.063Z,96338.44
2023-05-15T11:29:26.076Z,96342.66
2023-05-15T11:30:38.374Z,96342.44
2023-05-15T11:31:40.390Z,96345.06
2023-05-15T11:32:48.910Z,96342.19
2023-05-15T11:33:52.405Z,96338.44
2023-05-15T11:34:59.999Z,96341.28
2023-05-15T11:36:01.957Z,96338.91
2023-05-15T11:37:04.595Z,96347.78
2023-05-15T11:38:12.081Z,96346.78
2023-05-15T11:39:13.903Z,96342.31
2023-05-15T11:40:45.212Z,96336.28
2023-05-15T11:41:47.126Z,96345.72
2023-05-15T11:43:07.674Z,96340.25
2023-05-15T11:44:09.598Z,96342.88
2023-05-15T11:45:11.564Z,96339.47
2023-05-15T11:46:14.826Z,96347.00
2023-05-15T11:47:17.525Z,96343.03
2023-05-15T11:48:19.948Z,96341.66
2023-05-15T11:49:23.141Z,96335.16
2023-05-15T11:50:25.676Z,96333.66
2023-05-15T11:51:28.087Z,96336.03
2023-05-15T11:52:30.993Z,96331.06
2023-05-15T11:53:33.581Z,96331.06
2023-05-15T11:54:35.810Z,96325.31
2023-05-15T11:55:38.557Z,96328.50
2023-05-15T11:56:47.244Z,96326.72
2023-05-15T11:57:49.289Z,96327.16
2023-05-15T11:58:52.169Z,96322.94
2023-05-15T11:59:54.565Z,96327.06
2023-05-15T12:00:58.133Z,96323.97
2023-05-15T12:02:00.053Z,96326.72
2023-05-15T12:03:04.089Z,96323.38
2023-05-15T12:04:12.607Z,96324.94
2023-05-15T12:05:14.691Z,96328.13
2023-05-15T12:06:16.738Z,96334.19
2023-05-15T12:07:18.671Z,96330.28
2023-05-15T12:08:24.036Z,96325.06
2023-05-15T12:09:27.852Z,96331.00
2023-05-15T12:10:30.350Z,96337.97
2023-05-15T12:11:32.189Z,96344.22
2023-05-15T12:12:35.844Z,96336.38
2023-05-15T12:13:37.858Z,96348.69
2023-05-15T12:14:39.778Z,96355.75
2023-05-15T12:15:44.662Z,96351.75
2023-05-15T12:16:46.645Z,96354.63
2023-05-15T12:17:48.572Z,96360.34
2023-05-15T12:18:50.713Z,96361.47
2023-05-15T12:19:53.274Z,96369.66
2023-05-15T12:20:55.386Z,96364.19
2023-05-15T12:21:57.330Z,96373.41
2023-05-15T12:22:59.256Z,96374.66